createdAt,value
2023-05-13T00:00:00.975Z,94315.00
2023-05-13T00:01:01.038Z,94315.00
2023-05-13T00:02:01.077Z,94313.00
2023-05-13T00:03:01.205Z,94317.00
2023-05-13T00:04:01.191Z,94311.00
2023-05-13T00:05:01.230Z,94313.00
2023-05-13T00:06:01.373Z,94313.00
2023-05-13T00:07:01.380Z,94311.00
2023-05-13T00:08:01.417Z,94313.00
2023-05-13T00:09:01.481Z,94309.00
2023-05-13T00:10:01.563Z,94313.00
2023-05-13T00:11:01.621Z,94311.00
2023-05-13T00:12:01.707Z,94311.00
2023-05-13T00:13:01.737Z,94313.00
2023-05-13T00:14:01.801Z,94313.00
2023-05-13T00:15:01.930Z,94315.00
2023-05-13T00:16:01.958Z,94317.00
2023-05-13T00:17:01.997Z,94319.00
2023-05-13T00:18:02.073Z,94319.00
2023-05-13T00:19:02.157Z,94321.00
2023-05-13T00:20:02.153Z,94317.00
2023-05-13T00:21:02.222Z,94317.00
2023-05-13T00:22:02.285Z,94323.00
2023-05-13T00:23:02.364Z,94323.00
2023-05-13T00:24:02.418Z,94317.00
2023-05-13T00:25:02.478Z,94319.00
2023-05-13T00:26:02.529Z,94323.00
2023-05-13T00:27:02.589Z,94317.00
2023-05-13T00:28:02.661Z,94317.00
2023-05-13T00:29:02.712Z,94317.00
2023-05-13T00:30:02.769Z,94319.00
2023-05-13T00:31:02.902Z,94317.00
2023-05-13T00:32:02.893Z,94319.00
2023-05-13T00:33:02.996Z,94317.00
2023-05-13T00:34:02.995Z,94319.00
2023-05-13T00:35:03.074Z,94319.00
2023-05-13T00:36:03.110Z,94317.00
2023-05-13T00:37:03.187Z,94319.00
2023-05-13T00:38:03.252Z,94319.00
2023-05-13T00:39:03.323Z,94321.00
2023-05-13T00:40:03.376Z,94319.00
2023-05-13T00:41:03.443Z,94323.00
2023-05-13T00:42:03.497Z,94319.00
2023-05-13T00:43:03.573Z,94323.00
2023-05-13T00:44:03.623Z,94323.00
2023-05-13T00:45:03.664Z,94323.00
2023-05-13T00:46:03.856Z,94323.00
2023-05-13T00:47:03.770Z,94324.00
2023-05-13T00:48:03.850Z,94323.00
2023-05-13T00:49:03.908Z,94323.00
2023-05-13T00:50:03.961Z,94323.00
2023-05-13T00:51:04.048Z,94324.00
2023-05-13T00:52:04.073Z,94324.00
2023-05-13T00:53:04.148Z,94326.00
2023-05-13T00:54:04.206Z,94324.00
2023-05-13T00:55:04.263Z,94326.00
2023-05-13T00:56:04.352Z,94323.00
2023-05-13T00:57:04.402Z,94326.00
2023-05-13T00:58:04.463Z,94328.00
2023-05-13T00:59:04.502Z,94326.00
2023-05-13T01:00:04.557Z,94326.00
2023-05-13T01:01:04.665Z,94326.00
2023-05-13T01:02:04.747Z,94326.00
2023-05-13T01:03:04.904Z,94328.00
2023-05-13T01:04:04.750Z,94326.00
2023-05-13T01:05:04.844Z,94328.00
2023-05-13T01:06:04.845Z,94328.00
2023-05-13T01:07:04.877Z,94328.00
2023-05-13T01:08:04.973Z,94328.00
2023-05-13T01:09:05.022Z,94330.00
2023-05-13T01:10:05.176Z,94330.00
2023-05-13T01:11:05.142Z,94330.00
2023-05-13T01:12:05.212Z,94332.00
2023-05-13T01:13:05.288Z,94330.00
2023-05-13T01:14:05.343Z,94332.00
2023-05-13T01:15:05.381Z,94332.00
2023-05-13T01:16:05.477Z,94332.00
2023-05-13T01:17:05.545Z,94332.00
2023-05-13T01:18:05.626Z,94332.00
2023-05-13T01:19:05.658Z,94332.00
2023-05-13T01:20:05.686Z,94332.00
2023-05-13T01:21:05.754Z,94330.00
2023-05-13T01:22:05.810Z,94334.00
2023-05-13T01:23:05.895Z,94336.00
2023-05-13T01:24:05.963Z,94330.00
2023-05-13T01:25:06.012Z,94332.00
2023-05-13T01:26:06.058Z,94330.00
2023-05-13T01:27:06.114Z,94332.00
2023-05-13T01:28:06.177Z,94330.00
2023-05-13T01:29:06.241Z,94330.00
2023-05-13T01:30:06.276Z,94330.00
2023-05-13T01:31:06.364Z,94334.00
2023-05-13T01:32:06.403Z,94330.00
2023-05-13T01:33:06.538Z,94334.00
2023-05-13T01:34:06.517Z,94332.00
2023-05-13T01:35:06.577Z,94334.00
2023-05-13T01:36:06.657Z,94334.00
2023-05-13T01:37:06.725Z,94334.00
2023-05-13T01:38:06.772Z,94334.00
2023-05-13T01:39:06.847Z,94336.00
2023-05-13T01:40:17.170Z,94336.00
2023-05-13T01:41:07.901Z,94338.00
2023-05-13T01:42:06.892Z,94338.00
2023-05-13T01:43:06.877Z,94336.00
2023-05-13T01:44:06.881Z,94338.00
2023-05-13T01:45:06.870Z,94338.00
2023-05-13T01:46:06.891Z,94342.00
2023-05-13T01:47:06.867Z,94340.00
2023-05-13T01:48:06.868Z,94338.00
2023-05-13T01:49:06.885Z,94340.00
2023-05-13T01:50:06.970Z,94340.00
2023-05-13T01:51:07.007Z,94340.00
2023-05-13T01:52:07.091Z,94338.00
2023-05-13T01:53:07.135Z,94338.00
2023-05-13T01:54:07.208Z,94334.00
2023-05-13T01:55:07.279Z,94336.00
2023-05-13T01:56:07.326Z,94334.00
2023-05-13T01:57:07.377Z,94334.00
2023-05-13T01:58:07.441Z,94334.00
2023-05-13T01:59:07.522Z,94332.00
2023-05-13T02:00:07.576Z,94330.00
2023-05-13T02:01:07.595Z,94332.00
2023-05-13T02:02:07.782Z,94330.00
2023-05-13T02:03:07.763Z,94334.00
2023-05-13T02:04:07.830Z,94332.00
2023-05-13T02:05:07.838Z,94330.00
2023-05-13T02:06:07.866Z,94330.00
2023-05-13T02:07:07.915Z,94328.00
2023-05-13T02:08:07.956Z,94332.00
2023-05-13T02:09:08.023Z,94332.00
2023-05-13T02:10:08.044Z,94332.00
2023-05-13T02:11:08.072Z,94332.00
2023-05-13T02:12:08.119Z,94332.00
2023-05-13T02:13:08.182Z,94332.00
2023-05-13T02:14:08.199Z,94332.00
2023-05-13T02:15:08.250Z,94334.00
2023-05-13T02:16:08.372Z,94332.00
2023-05-13T02:17:08.373Z,94332.00
2023-05-13T02:18:08.485Z,94332.00
2023-05-13T02:19:08.484Z,94332.00
2023-05-13T02:20:08.548Z,94332.00
2023-05-13T02:21:08.605Z,94330.00
2023-05-13T02:22:08.660Z,94330.00
2023-05-13T02:23:08.732Z,94330.00
2023-05-13T02:24:08.782Z,94332.00
2023-05-13T02:25:08.861Z,94332.00
2023-05-13T02:26:08.916Z,94334.00
2023-05-13T02:27:08.973Z,94332.00
2023-05-13T02:28:09.012Z,94330.00
2023-05-13T02:29:09.076Z,94332.00
2023-05-13T02:30:09.081Z,94330.00
2023-05-13T02:31:09.152Z,94332.00
2023-05-13T02:32:09.356Z,94330.00
2023-05-13T02:33:09.291Z,94330.00
2023-05-13T02:34:09.261Z,94328.00
2023-05-13T02:35:09.304Z,94330.00
2023-05-13T02:36:09.354Z,94330.00
2023-05-13T02:37:09.393Z,94330.00
2023-05-13T02:38:09.453Z,94330.00
2023-05-13T02:39:09.501Z,94330.00
2023-05-13T02:40:09.567Z,94330.00
2023-05-13T02:41:09.608Z,94332.00
2023-05-13T02:42:09.684Z,94332.00
2023-05-13T02:43:09.728Z,94334.00
2023-05-13T02:44:09.778Z,94334.00
2023-05-13T02:45:09.833Z,94334.00
2023-05-13T02:46:09.886Z,94334.00
2023-05-13T02:47:09.911Z,94334.00
2023-05-13T02:48:10.032Z,94334.00
2023-05-13T02:49:10.027Z,94332.00
2023-05-13T02:50:10.056Z,94334.00
2023-05-13T02:51:10.108Z,94334.00
2023-05-13T02:52:10.174Z,94334.00
2023-05-13T02:53:10.228Z,94334.00
2023-05-13T02:54:10.230Z,94334.00
2023-05-13T02:55:10.340Z,94334.00
2023-05-13T02:56:10.331Z,94336.00
2023-05-13T02:57:10.408Z,94334.00
2023-05-13T02:58:10.430Z,94338.00
2023-05-13T02:59:10.465Z,94338.00
2023-05-13T03:00:10.494Z,94338.00
2023-05-13T03:01:10.581Z,94336.00
2023-05-13T03:02:10.671Z,94336.00
2023-05-13T03:03:10.873Z,94336.00
2023-05-13T03:04:10.703Z,94340.00
2023-05-13T03:05:10.771Z,94340.00
2023-05-13T03:06:10.823Z,94338.00
2023-05-13T03:07:10.857Z,94336.00
2023-05-13T03:08:10.906Z,94340.00
2023-05-13T03:09:10.937Z,94338.00
2023-05-13T03:10:11.013Z,94340.00
2023-05-13T03:11:11.066Z,94338.00
2023-05-13T03:12:11.099Z,94336.00
2023-05-13T03:13:11.168Z,94336.00
2023-05-13T03:14:11.239Z,94338.00
2023-05-13T03:15:11.296Z,94336.00
2023-05-13T03:16:11.340Z,94338.00
2023-05-13T03:17:11.409Z,94340.00
2023-05-13T03:18:11.436Z,94342.00
2023-05-13T03:19:11.698Z,94342.00
2023-05-13T03:20:11.553Z,94344.00
2023-05-13T03:21:11.597Z,94344.00
2023-05-13T03:22:11.642Z,94346.00
2023-05-13T03:23:11.709Z,94348.00
2023-05-13T03:24:11.734Z,94346.00
2023-05-13T03:25:11.741Z,94346.00
2023-05-13T03:26:11.796Z,94348.00
2023-05-13T03:27:11.806Z,94346.00
2023-05-13T03:28:11.825Z,94348.00
2023-05-13T03:29:11.887Z,94348.00
2023-05-13T03:30:11.894Z,94348.00
2023-05-13T03:31:11.947Z,94350.00
2023-05-13T03:32:11.972Z,94348.00
2023-05-13T03:33:12.061Z,94354.00
2023-05-13T03:34:12.060Z,94354.00
2023-05-13T03:35:12.094Z,94352.00
2023-05-13T03:36:12.143Z,94354.00
2023-05-13T03:37:12.160Z,94354.00
2023-05-13T03:38:12.193Z,94356.00
2023-05-13T03:39:12.192Z,94354.00
2023-05-13T03:40:12.214Z,94356.00
2023-05-13T03:41:12.247Z,94356.00
2023-05-13T03:42:12.314Z,94356.00
2023-05-13T03:43:12.387Z,94356.00
2023-05-13T03:44:12.392Z,94356.00
2023-05-13T03:45:12.439Z,94358.00
2023-05-13T03:46:12.522Z,94360.00
2023-05-13T03:47:12.530Z,94360.00
2023-05-13T03:48:12.622Z,94360.00
2023-05-13T03:49:12.600Z,94362.00
2023-05-13T03:50:12.654Z,94362.00
2023-05-13T03:51:12.730Z,94364.00
2023-05-13T03:52:12.716Z,94366.00
2023-05-13T03:53:12.755Z,94366.00
2023-05-13T03:54:12.791Z,94366.00
2023-05-13T03:55:12.815Z,94368.00
2023-05-13T03:56:12.852Z,94368.00
2023-05-13T03:57:12.865Z,94366.00
2023-05-13T03:58:12.909Z,94368.00
2023-05-13T03:59:12.931Z,94368.00
2023-05-13T04:00:12.948Z,94368.00
2023-05-13T04:01:12.968Z,94368.00
2023-05-13T04:02:13.035Z,94368.00
2023-05-13T04:03:13.033Z,94366.00
2023-05-13T04:04:13.022Z,94368.00
2023-05-13T04:05:13.070Z,94368.00
2023-05-13T04:06:13.063Z,94366.00
2023-05-13T04:07:13.081Z,94370.00
2023-05-13T04:08:13.109Z,94370.00
2023-05-13T04:09:13.156Z,94370.00
2023-05-13T04:10:15.465Z,94371.00
2023-05-13T04:11:13.171Z,94373.00
2023-05-13T04:12:13.158Z,94373.00
2023-05-13T04:13:13.158Z,94373.00
2023-05-13T04:14:13.163Z,94373.00
2023-05-13T04:15:13.150Z,94370.00
2023-05-13T04:16:13.135Z,94375.00
2023-05-13T04:17:13.187Z,94373.00
2023-05-13T04:18:13.132Z,94371.00
2023-05-13T04:19:13.243Z,94371.00
2023-05-13T04:20:13.130Z,94371.00
2023-05-13T04:21:13.109Z,94370.00
2023-05-13T04:22:13.101Z,94373.00
2023-05-13T04:23:13.095Z,94371.00
2023-05-13T04:24:13.084Z,94373.00
2023-05-13T04:25:13.073Z,94375.00
2023-05-13T04:26:13.057Z,94375.00
2023-05-13T04:27:13.058Z,94377.00
2023-05-13T04:28:13.038Z,94383.00
2023-05-13T04:29:13.036Z,94383.00
2023-05-13T04:30:13.049Z,94383.00
2023-05-13T04:31:13.040Z,94383.00
2023-05-13T04:32:13.157Z,94385.00
2023-05-13T04:33:13.040Z,94393.00
2023-05-13T04:34:13.023Z,94393.00
2023-05-13T04:35:13.002Z,94393.00
2023-05-13T04:36:15.006Z,94395.00
2023-05-13T04:37:12.993Z,94395.00
2023-05-13T04:38:13.005Z,94395.00
2023-05-13T04:39:12.983Z,94397.00
2023-05-13T04:40:12.974Z,94395.00
2023-05-13T04:41:12.952Z,94395.00
2023-05-13T04:42:12.958Z,94397.00
2023-05-13T04:43:12.988Z,94397.00
2023-05-13T04:44:13.035Z,94397.00
2023-05-13T04:45:13.047Z,94397.00
2023-05-13T04:46:13.149Z,94397.00
2023-05-13T04:47:13.113Z,94397.00
2023-05-13T04:48:13.280Z,94399.00
2023-05-13T04:49:13.122Z,94399.00
2023-05-13T04:50:13.147Z,94399.00
2023-05-13T04:51:13.124Z,94401.00
2023-05-13T04:52:13.167Z,94401.00
2023-05-13T04:53:13.176Z,94403.00
2023-05-13T04:54:13.193Z,94403.00
2023-05-13T04:55:13.241Z,94403.00
2023-05-13T04:56:13.284Z,94405.00
2023-05-13T04:57:13.309Z,94405.00
2023-05-13T04:58:13.331Z,94405.00
2023-05-13T04:59:13.348Z,94407.00
2023-05-13T05:00:13.398Z,94405.00
2023-05-13T05:01:13.507Z,94405.00
2023-05-13T05:02:13.465Z,94409.00
2023-05-13T05:03:13.531Z,94409.00
2023-05-13T05:04:13.620Z,94407.00
2023-05-13T05:05:14.649Z,94409.00
2023-05-13T05:06:13.784Z,94411.00
2023-05-13T05:07:13.837Z,94415.00
2023-05-13T05:08:13.900Z,94413.00
2023-05-13T05:09:13.912Z,94416.00
2023-05-13T05:10:13.951Z,94416.00
2023-05-13T05:11:14.002Z,94415.00
2023-05-13T05:12:14.032Z,94415.00
2023-05-13T05:13:14.072Z,94413.00
2023-05-13T05:14:14.117Z,94413.00
2023-05-13T05:15:14.178Z,94411.00
2023-05-13T05:16:14.240Z,94413.00
2023-05-13T05:17:14.338Z,94413.00
2023-05-13T05:18:14.370Z,94415.00
2023-05-13T05:19:14.382Z,94411.00
2023-05-13T05:20:14.424Z,94415.00
2023-05-13T05:21:14.499Z,94415.00
2023-05-13T05:22:14.530Z,94415.00
2023-05-13T05:23:14.585Z,94415.00
2023-05-13T05:24:14.614Z,94418.00
2023-05-13T05:25:14.630Z,94420.00
2023-05-13T05:26:14.673Z,94420.00
2023-05-13T05:27:14.704Z,94420.00
2023-05-13T05:28:14.717Z,94422.00
2023-05-13T05:29:14.770Z,94424.00
2023-05-13T05:30:14.807Z,94422.00
2023-05-13T05:31:14.871Z,94422.00
2023-05-13T05:32:14.856Z,94422.00
2023-05-13T05:33:14.868Z,94422.00
2023-05-13T05:34:14.910Z,94426.00
2023-05-13T05:35:14.928Z,94426.00
2023-05-13T05:36:14.976Z,94424.00
2023-05-13T05:37:14.997Z,94424.00
2023-05-13T05:38:15.058Z,94426.00
2023-05-13T05:39:15.106Z,94426.00
2023-05-13T05:40:15.161Z,94426.00
2023-05-13T05:41:15.210Z,94426.00
2023-05-13T05:42:15.262Z,94424.00
2023-05-13T05:43:15.322Z,94428.00
2023-05-13T05:44:15.392Z,94428.00
2023-05-13T05:45:15.429Z,94426.00
2023-05-13T05:46:15.476Z,94426.00
2023-05-13T05:47:15.494Z,94426.00
2023-05-13T05:48:15.566Z,94428.00
2023-05-13T05:49:15.623Z,94428.00
2023-05-13T05:50:15.670Z,94432.00
2023-05-13T05:51:15.727Z,94428.00
2023-05-13T05:52:15.797Z,94430.00
2023-05-13T05:53:15.830Z,94430.00
2023-05-13T05:54:15.910Z,94428.00
2023-05-13T05:55:15.963Z,94432.00
2023-05-13T05:56:16.006Z,94432.00
2023-05-13T05:57:16.047Z,94432.00
2023-05-13T05:58:16.098Z,94432.00
2023-05-13T05:59:16.173Z,94432.00
2023-05-13T06:00:16.268Z,94432.00
2023-05-13T06:01:16.294Z,94432.00
2023-05-13T06:02:16.374Z,94434.00
2023-05-13T06:03:16.654Z,94436.00
2023-05-13T06:04:16.674Z,94436.00
2023-05-13T06:05:16.546Z,94436.00
2023-05-13T06:06:16.606Z,94438.00
2023-05-13T06:07:16.772Z,94438.00
2023-05-13T06:08:16.726Z,94440.00
2023-05-13T06:09:16.766Z,94438.00
2023-05-13T06:10:16.839Z,94438.00
2023-05-13T06:11:16.887Z,94436.00
2023-05-13T06:12:16.969Z,94436.00
2023-05-13T06:13:17.030Z,94438.00
2023-05-13T06:14:17.075Z,94440.00
2023-05-13T06:15:17.159Z,94438.00
2023-05-13T06:16:17.243Z,94438.00
2023-05-13T06:17:17.288Z,94436.00
2023-05-13T06:18:17.341Z,94436.00
2023-05-13T06:19:17.450Z,94438.00
2023-05-13T06:20:17.459Z,94438.00
2023-05-13T06:21:17.527Z,94438.00
2023-05-13T06:22:17.593Z,94436.00
2023-05-13T06:23:17.662Z,94438.00
2023-05-13T06:24:17.694Z,94442.00
2023-05-13T06:25:17.783Z,94444.00
2023-05-13T06:26:17.823Z,94442.00
2023-05-13T06:27:17.889Z,94442.00
2023-05-13T06:28:17.961Z,94444.00
2023-05-13T06:29:18.014Z,94442.00
2023-05-13T06:30:18.015Z,94444.00
2023-05-13T06:31:18.060Z,94446.00
2023-05-13T06:32:18.056Z,94444.00
2023-05-13T06:33:18.116Z,94444.00
2023-05-13T06:34:18.138Z,94442.00
2023-05-13T06:35:18.208Z,94442.00
2023-05-13T06:36:18.283Z,94442.00
2023-05-13T06:37:18.328Z,94444.00
2023-05-13T06:38:18.401Z,94442.00
2023-05-13T06:39:18.460Z,94444.00
2023-05-13T06:40:18.560Z,94444.00
2023-05-13T06:41:18.576Z,94444.00
2023-05-13T06:42:18.648Z,94444.00
2023-05-13T06:43:18.718Z,94444.00
2023-05-13T06:44:18.776Z,94444.00
2023-05-13T06:45:18.824Z,94444.00
2023-05-13T06:46:18.907Z,94444.00
2023-05-13T06:47:19.321Z,94448.00
2023-05-13T06:48:19.061Z,94446.00
2023-05-13T06:49:19.087Z,94450.00
2023-05-13T06:50:19.153Z,94446.00
2023-05-13T06:51:19.198Z,94446.00
2023-05-13T06:52:19.261Z,94446.00
2023-05-13T06:53:19.343Z,94448.00
2023-05-13T06:54:19.378Z,94448.00
2023-05-13T06:55:19.444Z,94448.00
2023-05-13T06:56:19.488Z,94448.00
2023-05-13T06:57:20.783Z,94450.00
2023-05-13T06:58:19.636Z,94452.00
2023-05-13T06:59:19.700Z,94450.00
2023-05-13T07:00:19.822Z,94452.00
2023-05-13T07:01:19.808Z,94452.00
2023-05-13T07:02:19.752Z,94452.00
2023-05-13T07:03:19.818Z,94452.00
2023-05-13T07:04:19.867Z,94450.00
2023-05-13T07:05:19.797Z,94452.00
2023-05-13T07:06:19.858Z,94450.00
2023-05-13T07:07:19.902Z,94452.00
2023-05-13T07:08:19.968Z,94452.00
2023-05-13T07:09:20.037Z,94458.00
2023-05-13T07:10:20.310Z,94458.00
2023-05-13T07:11:20.154Z,94458.00
2023-05-13T07:12:20.213Z,94458.00
2023-05-13T07:13:20.274Z,94460.00
2023-05-13T07:14:20.330Z,94460.00
2023-05-13T07:15:20.652Z,94458.00
2023-05-13T07:16:20.448Z,94458.00
2023-05-13T07:17:20.503Z,94458.00
2023-05-13T07:18:20.598Z,94458.00
2023-05-13T07:19:20.650Z,94456.00
2023-05-13T07:20:20.795Z,94458.00
2023-05-13T07:21:20.730Z,94458.00
2023-05-13T07:22:20.785Z,94460.00
2023-05-13T07:23:20.842Z,94460.00
2023-05-13T07:24:20.883Z,94460.00
2023-05-13T07:25:20.945Z,94460.00
2023-05-13T07:26:21.006Z,94463.00
2023-05-13T07:27:21.053Z,94462.00
2023-05-13T07:28:21.133Z,94462.00
2023-05-13T07:29:21.152Z,94463.00
2023-05-13T07:30:21.487Z,94465.00
2023-05-13T07:31:21.360Z,94463.00
2023-05-13T07:32:21.360Z,94463.00
2023-05-13T07:33:21.406Z,94462.00
2023-05-13T07:34:21.438Z,94462.00
2023-05-13T07:35:21.737Z,94462.00
2023-05-13T07:36:21.551Z,94462.00
2023-05-13T07:37:21.597Z,94462.00
2023-05-13T07:38:21.656Z,94462.00
2023-05-13T07:39:21.742Z,94462.00
2023-05-13T07:40:22.000Z,94462.00
2023-05-13T07:41:21.836Z,94460.00
2023-05-13T07:42:21.898Z,94460.00
2023-05-13T07:43:21.943Z,94460.00
2023-05-13T07:44:22.021Z,94460.00
2023-05-13T07:45:22.316Z,94460.00
2023-05-13T07:46:22.170Z,94458.00
2023-05-13T07:47:22.212Z,94462.00
2023-05-13T07:48:22.222Z,94458.00
2023-05-13T07:49:22.302Z,94458.00
2023-05-13T07:50:22.338Z,94462.00
2023-05-13T07:51:22.383Z,94460.00
2023-05-13T07:52:22.452Z,94460.00
2023-05-13T07:53:22.492Z,94460.00
2023-05-13T07:54:22.559Z,94460.00
2023-05-13T07:55:22.811Z,94460.00
2023-05-13T07:56:22.654Z,94458.00
2023-05-13T07:57:22.705Z,94462.00
2023-05-13T07:58:22.764Z,94460.00
2023-05-13T07:59:22.809Z,94454.00
2023-05-13T08:00:22.876Z,94456.00
2023-05-13T08:01:22.919Z,94454.00
2023-05-13T08:02:23.000Z,94452.00
2023-05-13T08:03:23.095Z,94454.00
2023-05-13T08:04:23.162Z,94452.00
2023-05-13T08:05:23.382Z,94456.00
2023-05-13T08:06:23.186Z,94452.00
2023-05-13T08:07:23.219Z,94456.00
2023-05-13T08:08:23.279Z,94456.00
2023-05-13T08:09:23.353Z,94456.00
2023-05-13T08:10:23.430Z,94456.00
2023-05-13T08:11:23.446Z,94456.00
2023-05-13T08:12:23.498Z,94456.00
2023-05-13T08:13:23.564Z,94458.00
2023-05-13T08:14:23.606Z,94454.00
2023-05-13T08:15:23.828Z,94456.00
2023-05-13T08:16:23.728Z,94454.00
2023-05-13T08:17:23.766Z,94452.00
2023-05-13T08:18:23.834Z,94452.00
2023-05-13T08:19:23.854Z,94450.00
2023-05-13T08:20:23.945Z,94452.00
2023-05-13T08:21:23.952Z,94450.00
2023-05-13T08:22:23.981Z,94448.00
2023-05-13T08:23:33.226Z,94448.00
2023-05-13T08:24:25.056Z,94448.00
2023-05-13T08:25:24.121Z,94446.00
2023-05-13T08:26:24.012Z,94448.00
2023-05-13T08:27:24.022Z,94448.00
2023-05-13T08:28:24.007Z,94448.00
2023-05-13T08:29:23.987Z,94446.00
2023-05-13T08:30:24.094Z,94446.00
2023-05-13T08:31:23.992Z,94450.00
2023-05-13T08:32:24.022Z,94448.00
2023-05-13T08:33:23.965Z,94446.00
2023-05-13T08:34:24.004Z,94446.00
2023-05-13T08:35:24.230Z,94446.00
2023-05-13T08:36:24.108Z,94446.00
2023-05-13T08:37:24.154Z,94444.00
2023-05-13T08:38:24.202Z,94444.00
2023-05-13T08:39:24.274Z,94442.00
2023-05-13T08:40:24.291Z,94446.00
2023-05-13T08:41:24.344Z,94444.00
2023-05-13T08:42:24.386Z,94446.00
2023-05-13T08:43:24.422Z,94444.00
2023-05-13T08:44:24.475Z,94440.00
2023-05-13T08:45:24.533Z,94440.00
2023-05-13T08:46:24.616Z,94442.00
2023-05-13T08:47:24.649Z,94440.00
2023-05-13T08:48:24.653Z,94438.00
2023-05-13T08:49:24.709Z,94440.00
2023-05-13T08:50:24.760Z,94438.00
2023-05-13T08:51:24.805Z,94436.00
2023-05-13T08:52:24.827Z,94438.00
2023-05-13T08:53:24.871Z,94438.00
2023-05-13T08:54:24.928Z,94436.00
2023-05-13T08:55:25.036Z,94440.00
2023-05-13T08:56:25.012Z,94436.00
2023-05-13T08:57:25.054Z,94438.00
2023-05-13T08:58:25.088Z,94436.00
2023-05-13T08:59:25.138Z,94434.00
2023-05-13T09:00:25.160Z,94432.00
2023-05-13T09:01:25.238Z,94430.00
2023-05-13T09:02:25.297Z,94430.00
2023-05-13T09:03:25.275Z,94430.00
2023-05-13T09:04:25.307Z,94428.00
2023-05-13T09:05:25.674Z,94428.00
2023-05-13T09:06:25.371Z,94430.00
2023-05-13T09:07:25.420Z,94430.00
2023-05-13T09:08:25.446Z,94430.00
2023-05-13T09:09:25.485Z,94430.00
2023-05-13T09:10:25.498Z,94428.00
2023-05-13T09:11:25.527Z,94432.00
2023-05-13T09:12:25.566Z,94430.00
2023-05-13T09:13:25.600Z,94428.00
2023-05-13T09:14:25.631Z,94426.00
2023-05-13T09:15:25.776Z,94428.00
2023-05-13T09:16:25.725Z,94428.00
2023-05-13T09:17:25.745Z,94428.00
2023-05-13T09:18:25.826Z,94426.00
2023-05-13T09:19:25.942Z,94426.00
2023-05-13T09:20:25.809Z,94424.00
2023-05-13T09:21:25.906Z,94422.00
2023-05-13T09:22:25.885Z,94422.00
2023-05-13T09:23:25.912Z,94422.00
2023-05-13T09:24:25.923Z,94418.00
2023-05-13T09:25:26.019Z,94420.00
2023-05-13T09:26:25.979Z,94422.00
2023-05-13T09:27:25.999Z,94422.00
2023-05-13T09:28:26.042Z,94420.00
2023-05-13T09:29:26.059Z,94416.00
2023-05-13T09:30:26.098Z,94420.00
2023-05-13T09:31:26.143Z,94418.00
2023-05-13T09:32:26.153Z,94416.00
2023-05-13T09:33:26.162Z,94416.00
2023-05-13T09:34:26.191Z,94413.00
2023-05-13T09:35:26.217Z,94413.00
2023-05-13T09:36:26.218Z,94411.00
2023-05-13T09:37:26.266Z,94413.00
2023-05-13T09:38:26.303Z,94411.00
2023-05-13T09:39:26.319Z,94411.00
2023-05-13T09:40:26.325Z,94411.00
2023-05-13T09:41:26.368Z,94409.00
2023-05-13T09:42:26.384Z,94407.00
2023-05-13T09:43:26.404Z,94409.00
2023-05-13T09:44:26.416Z,94407.00
2023-05-13T09:45:26.461Z,94407.00
2023-05-13T09:46:26.534Z,94405.00
2023-05-13T09:47:26.528Z,94411.00
2023-05-13T09:48:26.560Z,94409.00
2023-05-13T09:49:26.545Z,94411.00
2023-05-13T09:50:26.568Z,94411.00
2023-05-13T09:51:26.573Z,94411.00
2023-05-13T09:52:26.609Z,94413.00
2023-05-13T09:53:26.648Z,94413.00
2023-05-13T09:54:26.629Z,94409.00
2023-05-13T09:55:26.667Z,94411.00
2023-05-13T09:56:26.638Z,94409.00
2023-05-13T09:57:26.645Z,94413.00
2023-05-13T09:58:26.673Z,94409.00
2023-05-13T09:59:26.645Z,94411.00
2023-05-13T10:00:32.530Z,94409.00
2023-05-13T10:01:27.704Z,94409.00
2023-05-13T10:02:26.631Z,94409.00
2023-05-13T10:03:26.630Z,94409.00
2023-05-13T10:04:26.851Z,94407.00
2023-05-13T10:05:26.613Z,94407.00
2023-05-13T10:06:26.588Z,94407.00
2023-05-13T10:07:26.599Z,94407.00
2023-05-13T10:08:26.586Z,94407.00
2023-05-13T10:09:26.656Z,94407.00
2023-05-13T10:10:26.572Z,94407.00
2023-05-13T10:11:26.577Z,94409.00
2023-05-13T10:12:26.561Z,94407.00
2023-05-13T10:13:26.570Z,94405.00
2023-05-13T10:14:26.557Z,94405.00
2023-05-13T10:15:26.550Z,94405.00
2023-05-13T10:16:26.540Z,94403.00
2023-05-13T10:17:26.546Z,94403.00
2023-05-13T10:18:26.581Z,94403.00
2023-05-13T10:19:26.526Z,94401.00
2023-05-13T10:20:26.553Z,94395.00
2023-05-13T10:21:26.613Z,94399.00
2023-05-13T10:22:26.563Z,94401.00
2023-05-13T10:23:26.582Z,94395.00
2023-05-13T10:24:26.658Z,94399.00
2023-05-13T10:25:26.604Z,94399.00
2023-05-13T10:26:26.621Z,94397.00
2023-05-13T10:27:26.608Z,94395.00
2023-05-13T10:28:26.633Z,94397.00
2023-05-13T10:29:26.633Z,94393.00
2023-05-13T10:30:26.642Z,94385.00
2023-05-13T10:31:26.672Z,94393.00
2023-05-13T10:32:26.715Z,94381.00
2023-05-13T10:33:26.700Z,94381.00
2023-05-13T10:34:26.689Z,94379.00
2023-05-13T10:35:26.726Z,94379.00
2023-05-13T10:36:26.755Z,94379.00
2023-05-13T10:37:26.734Z,94377.00
2023-05-13T10:38:26.762Z,94377.00
2023-05-13T10:39:26.760Z,94377.00
2023-05-13T10:40:26.795Z,94377.00
2023-05-13T10:41:26.839Z,94377.00
2023-05-13T10:42:26.814Z,94377.00
2023-05-13T10:43:26.814Z,94375.00
2023-05-13T10:44:26.815Z,94373.00
2023-05-13T10:45:26.859Z,94370.00
2023-05-13T10:46:26.880Z,94366.00
2023-05-13T10:47:26.911Z,94366.00
2023-05-13T10:48:26.958Z,94368.00
2023-05-13T10:49:26.868Z,94366.00
2023-05-13T10:50:26.870Z,94364.00
2023-05-13T10:51:26.870Z,94362.00
2023-05-13T10:52:26.891Z,94362.00
2023-05-13T10:53:26.903Z,94362.00
2023-05-13T10:54:26.899Z,94360.00
2023-05-13T10:55:26.903Z,94356.00
2023-05-13T10:56:26.901Z,94356.00
2023-05-13T10:57:26.901Z,94354.00
2023-05-13T10:58:26.888Z,94352.00
2023-05-13T10:59:26.897Z,94354.00
2023-05-13T11:00:26.909Z,94354.00
2023-05-13T11:01:26.924Z,94356.00
2023-05-13T11:02:27.031Z,94356.00
2023-05-13T11:03:29.074Z,94354.00
2023-05-13T11:04:27.043Z,94354.00
2023-05-13T11:05:27.063Z,94358.00
2023-05-13T11:06:27.117Z,94358.00
2023-05-13T11:07:27.067Z,94356.00
2023-05-13T11:08:27.072Z,94352.00
2023-05-13T11:09:27.095Z,94350.00
2023-05-13T11:10:27.097Z,94346.00
2023-05-13T11:11:27.110Z,94348.00
2023-05-13T11:12:27.124Z,94346.00
2023-05-13T11:13:27.131Z,94346.00
2023-05-13T11:14:27.124Z,94344.00
2023-05-13T11:15:27.111Z,94342.00
2023-05-13T11:16:27.161Z,94342.00
2023-05-13T11:17:27.190Z,94342.00
2023-05-13T11:18:27.163Z,94338.00
2023-05-13T11:19:27.206Z,94340.00
2023-05-13T11:20:27.141Z,94340.00
2023-05-13T11:21:27.156Z,94338.00
2023-05-13T11:22:27.148Z,94336.00
2023-05-13T11:23:27.208Z,94336.00
2023-05-13T11:24:27.158Z,94336.00
2023-05-13T11:25:27.169Z,94338.00
2023-05-13T11:26:27.174Z,94338.00
2023-05-13T11:27:27.171Z,94334.00
2023-05-13T11:28:27.169Z,94338.00
2023-05-13T11:29:27.171Z,94332.00
2023-05-13T11:30:27.191Z,94334.00
2023-05-13T11:31:27.220Z,94336.00
2023-05-13T11:32:27.220Z,94334.00
2023-05-13T11:33:27.212Z,94332.00
2023-05-13T11:34:27.194Z,94334.00
2023-05-13T11:35:27.254Z,94334.00
2023-05-13T11:36:27.185Z,94330.00
2023-05-13T11:37:27.184Z,94330.00
2023-05-13T11:38:27.180Z,94326.00
2023-05-13T11:39:27.197Z,94324.00
2023-05-13T11:40:27.195Z,94324.00
2023-05-13T11:41:27.172Z,94323.00
2023-05-13T11:42:27.182Z,94324.00
2023-05-13T11:43:27.182Z,94323.00
2023-05-13T11:44:27.185Z,94321.00